Terminal Aerodrome Forecast
Issued by NWS

Home | Current Version | Previous Version | Text Only | Print | Product List | Glossary Off
Versions: 1 2 3 4 5 6 7 8 9 10 11 12 13 14 15 16 17 18 19 20 21 22 23 24 25 26 27 28 29 30 31 32 33 34

975
FTUS43 KLOT 242247 AAC
TAFORD
TAF AMD
KORD 242247Z 2423/2524 31015G25KT 3SM TSRA BKN015 OVC040CB
     FM250000 26012G20KT P6SM SCT025
     FM250200 29008KT P6SM BKN200
     FM250600 30007KT P6SM SCT200
     FM251400 33008KT P6SM SCT250=

USA.gov is the U.S. government's official web portal to all federal, state and local government web resources and services.